sensor_id;sensor_type;location;lat;lon;timestamp;P1;durP1;ratioP1;P2;durP2;ratioP2
71763;SDS011;59602;52.142;5.408;2022-12-17T00:00:02;34.65;;;11.20;;
71763;SDS011;59602;52.142;5.408;2022-12-17T00:02:57;31.80;;;11.30;;
71763;SDS011;59602;52.142;5.408;2022-12-17T00:05:43;35.45;;;11.25;;
71763;SDS011;59602;52.142;5.408;2022-12-17T00:08:29;38.73;;;12.90;;
71763;SDS011;59602;52.142;5.408;2022-12-17T00:11:15;34.05;;;12.73;;
71763;SDS011;59602;52.142;5.408;2022-12-17T00:14:00;36.80;;;12.32;;
71763;SDS011;59602;52.142;5.408;2022-12-17T00:16:46;33.25;;;11.40;;
71763;SDS011;59602;52.142;5.408;2022-12-17T00:19:31;33.70;;;11.82;;
71763;SDS011;59602;52.142;5.408;2022-12-17T00:22:17;33.93;;;11.77;;
71763;SDS011;59602;52.142;5.408;2022-12-17T00:25:02;37.58;;;12.25;;
71763;SDS011;59602;52.142;5.408;2022-12-17T00:27:47;33.67;;;11.77;;
71763;SDS011;59602;52.142;5.408;2022-12-17T00:30:32;32.50;;;11.63;;
71763;SDS011;59602;52.142;5.408;2022-12-17T00:33:17;31.58;;;11.68;;
71763;SDS011;59602;52.142;5.408;2022-12-17T00:36:06;34.50;;;10.83;;
71763;SDS011;59602;52.142;5.408;2022-12-17T00:38:55;32.80;;;10.77;;
71763;SDS011;59602;52.142;5.408;2022-12-17T00:41:40;35.35;;;11.63;;
71763;SDS011;59602;52.142;5.408;2022-12-17T00:44:25;33.25;;;10.68;;
71763;SDS011;59602;52.142;5.408;2022-12-17T00:47:10;31.98;;;11.18;;
71763;SDS011;59602;52.142;5.408;2022-12-17T00:49:55;30.37;;;10.77;;
71763;SDS011;59602;52.142;5.408;2022-12-17T00:52:40;32.97;;;11.77;;
71763;SDS011;59602;52.142;5.408;2022-12-17T00:55:27;34.85;;;11.23;;
71763;SDS011;59602;52.142;5.408;2022-12-17T00:58:12;33.63;;;11.82;;
71763;SDS011;59602;52.142;5.408;2022-12-17T01:00:58;33.70;;;10.20;;
71763;SDS011;59602;52.142;5.408;2022-12-17T01:03:45;30.60;;;11.47;;
71763;SDS011;59602;52.142;5.408;2022-12-17T01:06:31;35.58;;;11.48;;
71763;SDS011;59602;52.142;5.408;2022-12-17T01:09:18;35.00;;;10.80;;
71763;SDS011;59602;52.142;5.408;2022-12-17T01:12:03;37.17;;;11.80;;
71763;SDS011;59602;52.142;5.408;2022-12-17T01:14:49;34.70;;;10.98;;
71763;SDS011;59602;52.142;5.408;2022-12-17T01:17:33;33.67;;;10.80;;
71763;SDS011;59602;52.142;5.408;2022-12-17T01:20:21;32.40;;;10.95;;
71763;SDS011;59602;52.142;5.408;2022-12-17T01:23:06;33.58;;;11.20;;
71763;SDS011;59602;52.142;5.408;2022-12-17T01:25:53;28.77;;;10.20;;
71763;SDS011;59602;52.142;5.408;2022-12-17T01:28:39;30.75;;;10.68;;
71763;SDS011;59602;52.142;5.408;2022-12-17T01:31:25;36.70;;;10.87;;
71763;SDS011;59602;52.142;5.408;2022-12-17T01:34:14;30.83;;;10.77;;
71763;SDS011;59602;52.142;5.408;2022-12-17T01:37:01;31.20;;;11.05;;
71763;SDS011;59602;52.142;5.408;2022-12-17T01:39:46;32.72;;;10.73;;
71763;SDS011;59602;52.142;5.408;2022-12-17T01:42:37;33.00;;;10.68;;
71763;SDS011;59602;52.142;5.408;2022-12-17T01:45:25;27.97;;;10.27;;
71763;SDS011;59602;52.142;5.408;2022-12-17T01:48:17;30.00;;;10.35;;
71763;SDS011;59602;52.142;5.408;2022-12-17T01:51:02;33.83;;;10.68;;
71763;SDS011;59602;52.142;5.408;2022-12-17T01:53:49;33.65;;;11.27;;
71763;SDS011;59602;52.142;5.408;2022-12-17T01:56:40;33.78;;;11.20;;
71763;SDS011;59602;52.142;5.408;2022-12-17T01:59:39;32.73;;;11.53;;
71763;SDS011;59602;52.142;5.408;2022-12-17T02:02:28;33.38;;;11.02;;
71763;SDS011;59602;52.142;5.408;2022-12-17T02:05:15;33.80;;;11.35;;
71763;SDS011;59602;52.142;5.408;2022-12-17T02:11:04;34.33;;;11.85;;
71763;SDS011;59602;52.142;5.408;2022-12-17T02:14:06;37.70;;;11.37;;
71763;SDS011;59602;52.142;5.408;2022-12-17T02:17:00;35.80;;;11.00;;
71763;SDS011;59602;52.142;5.408;2022-12-17T02:19:56;33.10;;;11.27;;
71763;SDS011;59602;52.142;5.408;2022-12-17T02:22:59;35.45;;;11.02;;
71763;SDS011;59602;52.142;5.408;2022-12-17T02:25:55;36.53;;;11.50;;
71763;SDS011;59602;52.142;5.408;2022-12-17T02:28:48;30.80;;;10.27;;
71763;SDS011;59602;52.142;5.408;2022-12-17T02:31:36;35.53;;;11.77;;
71763;SDS011;59602;52.142;5.408;2022-12-17T02:34:26;30.27;;;10.18;;
71763;SDS011;59602;52.142;5.408;2022-12-17T02:37:12;30.25;;;10.30;;
71763;SDS011;59602;52.142;5.408;2022-12-17T02:39:57;28.55;;;10.27;;
71763;SDS011;59602;52.142;5.408;2022-12-17T02:42:43;33.03;;;11.33;;
71763;SDS011;59602;52.142;5.408;2022-12-17T02:45:30;30.95;;;10.20;;
71763;SDS011;59602;52.142;5.408;2022-12-17T02:48:17;34.47;;;11.10;;
71763;SDS011;59602;52.142;5.408;2022-12-17T02:51:03;32.85;;;10.15;;
71763;SDS011;59602;52.142;5.408;2022-12-17T02:53:52;32.90;;;11.02;;
71763;SDS011;59602;52.142;5.408;2022-12-17T02:56:48;32.90;;;10.20;;
71763;SDS011;59602;52.142;5.408;2022-12-17T02:59:36;37.67;;;11.15;;
71763;SDS011;59602;52.142;5.408;2022-12-17T03:02:26;37.22;;;11.35;;
71763;SDS011;59602;52.142;5.408;2022-12-17T03:05:12;30.70;;;10.63;;
71763;SDS011;59602;52.142;5.408;2022-12-17T03:08:12;39.13;;;11.23;;
71763;SDS011;59602;52.142;5.408;2022-12-17T03:10:58;31.87;;;11.17;;
71763;SDS011;59602;52.142;5.408;2022-12-17T03:14:00;30.92;;;11.23;;
71763;SDS011;59602;52.142;5.408;2022-12-17T03:16:46;30.80;;;10.38;;
71763;SDS011;59602;52.142;5.408;2022-12-17T03:19:33;34.15;;;11.60;;
71763;SDS011;59602;52.142;5.408;2022-12-17T03:22:18;32.50;;;11.13;;
71763;SDS011;59602;52.142;5.408;2022-12-17T03:25:03;32.10;;;11.13;;
71763;SDS011;59602;52.142;5.408;2022-12-17T03:27:48;36.92;;;11.82;;
71763;SDS011;59602;52.142;5.408;2022-12-17T03:30:34;30.50;;;11.07;;
71763;SDS011;59602;52.142;5.408;2022-12-17T03:33:21;30.08;;;10.43;;
71763;SDS011;59602;52.142;5.408;2022-12-17T03:36:07;38.95;;;12.25;;
71763;SDS011;59602;52.142;5.408;2022-12-17T03:38:53;34.63;;;12.10;;
71763;SDS011;59602;52.142;5.408;2022-12-17T03:41:38;34.85;;;11.95;;
71763;SDS011;59602;52.142;5.408;2022-12-17T03:44:23;33.10;;;10.93;;
71763;SDS011;59602;52.142;5.408;2022-12-17T03:47:08;36.30;;;12.00;;
71763;SDS011;59602;52.142;5.408;2022-12-17T03:49:53;41.03;;;13.38;;
71763;SDS011;59602;52.142;5.408;2022-12-17T03:52:39;38.23;;;12.80;;
71763;SDS011;59602;52.142;5.408;2022-12-17T03:55:23;34.70;;;12.45;;
71763;SDS011;59602;52.142;5.408;2022-12-17T03:58:08;37.63;;;14.13;;
71763;SDS011;59602;52.142;5.408;2022-12-17T04:00:53;37.22;;;13.35;;
71763;SDS011;59602;52.142;5.408;2022-12-17T04:03:39;31.55;;;12.50;;
71763;SDS011;59602;52.142;5.408;2022-12-17T04:06:24;33.87;;;11.83;;
71763;SDS011;59602;52.142;5.408;2022-12-17T04:09:09;34.63;;;12.52;;
71763;SDS011;59602;52.142;5.408;2022-12-17T04:11:54;39.67;;;14.88;;
71763;SDS011;59602;52.142;5.408;2022-12-17T04:14:39;33.90;;;12.27;;
71763;SDS011;59602;52.142;5.408;2022-12-17T04:17:24;40.38;;;13.65;;
71763;SDS011;59602;52.142;5.408;2022-12-17T04:20:09;32.43;;;12.33;;
71763;SDS011;59602;52.142;5.408;2022-12-17T04:22:54;33.00;;;11.95;;
71763;SDS011;59602;52.142;5.408;2022-12-17T04:25:40;32.78;;;13.05;;
71763;SDS011;59602;52.142;5.408;2022-12-17T04:28:25;39.20;;;16.73;;
71763;SDS011;59602;52.142;5.408;2022-12-17T04:31:10;35.35;;;13.93;;
71763;SDS011;59602;52.142;5.408;2022-12-17T04:33:55;30.47;;;12.03;;
71763;SDS011;59602;52.142;5.408;2022-12-17T04:36:40;31.67;;;11.52;;
71763;SDS011;59602;52.142;5.408;2022-12-17T04:39:26;36.55;;;13.50;;
71763;SDS011;59602;52.142;5.408;2022-12-17T04:42:11;33.17;;;12.18;;
71763;SDS011;59602;52.142;5.408;2022-12-17T04:44:56;38.80;;;13.02;;
71763;SDS011;59602;52.142;5.408;2022-12-17T04:47:41;38.47;;;12.90;;
71763;SDS011;59602;52.142;5.408;2022-12-17T04:50:27;36.47;;;12.82;;
71763;SDS011;59602;52.142;5.408;2022-12-17T04:53:12;34.80;;;12.32;;
71763;SDS011;59602;52.142;5.408;2022-12-17T04:55:57;34.85;;;12.88;;
71763;SDS011;59602;52.142;5.408;2022-12-17T04:58:42;33.58;;;12.35;;
71763;SDS011;59602;52.142;5.408;2022-12-17T05:01:27;36.47;;;13.30;;
71763;SDS011;59602;52.142;5.408;2022-12-17T05:04:13;36.45;;;13.10;;
71763;SDS011;59602;52.142;5.408;2022-12-17T05:06:58;33.83;;;11.57;;
71763;SDS011;59602;52.142;5.408;2022-12-17T05:09:43;32.17;;;11.68;;
71763;SDS011;59602;52.142;5.408;2022-12-17T05:12:28;34.50;;;11.82;;
71763;SDS011;59602;52.142;5.408;2022-12-17T05:15:13;33.10;;;12.83;;
71763;SDS011;59602;52.142;5.408;2022-12-17T05:18:05;36.72;;;12.75;;
71763;SDS011;59602;52.142;5.408;2022-12-17T05:20:51;35.03;;;12.93;;
71763;SDS011;59602;52.142;5.408;2022-12-17T05:23:36;37.65;;;13.93;;
71763;SDS011;59602;52.142;5.408;2022-12-17T05:26:23;35.63;;;12.95;;
71763;SDS011;59602;52.142;5.408;2022-12-17T05:29:09;34.97;;;12.80;;
71763;SDS011;59602;52.142;5.408;2022-12-17T05:31:54;41.30;;;13.77;;
71763;SDS011;59602;52.142;5.408;2022-12-17T05:34:40;36.22;;;12.57;;
71763;SDS011;59602;52.142;5.408;2022-12-17T05:37:25;32.92;;;12.75;;
71763;SDS011;59602;52.142;5.408;2022-12-17T05:40:10;37.22;;;13.23;;
71763;SDS011;59602;52.142;5.408;2022-12-17T05:42:59;34.87;;;12.33;;
71763;SDS011;59602;52.142;5.408;2022-12-17T05:45:46;35.08;;;12.65;;
71763;SDS011;59602;52.142;5.408;2022-12-17T05:48:32;37.40;;;12.85;;
71763;SDS011;59602;52.142;5.408;2022-12-17T05:51:18;38.10;;;13.02;;
71763;SDS011;59602;52.142;5.408;2022-12-17T05:54:04;31.58;;;12.65;;
71763;SDS011;59602;52.142;5.408;2022-12-17T05:56:50;36.23;;;12.47;;
71763;SDS011;59602;52.142;5.408;2022-12-17T05:59:36;39.08;;;13.48;;
71763;SDS011;59602;52.142;5.408;2022-12-17T06:02:21;33.63;;;12.75;;
71763;SDS011;59602;52.142;5.408;2022-12-17T06:05:07;36.95;;;12.23;;
71763;SDS011;59602;52.142;5.408;2022-12-17T06:07:52;36.80;;;12.70;;
71763;SDS011;59602;52.142;5.408;2022-12-17T06:10:45;35.50;;;12.70;;
71763;SDS011;59602;52.142;5.408;2022-12-17T06:13:30;40.00;;;13.10;;
71763;SDS011;59602;52.142;5.408;2022-12-17T06:16:16;34.90;;;12.35;;
71763;SDS011;59602;52.142;5.408;2022-12-17T06:19:01;34.05;;;12.20;;
71763;SDS011;59602;52.142;5.408;2022-12-17T06:21:47;38.13;;;12.63;;
71763;SDS011;59602;52.142;5.408;2022-12-17T06:24:32;35.27;;;12.60;;
71763;SDS011;59602;52.142;5.408;2022-12-17T06:33:54;36.15;;;12.48;;
71763;SDS011;59602;52.142;5.408;2022-12-17T06:36:40;36.33;;;12.55;;
71763;SDS011;59602;52.142;5.408;2022-12-17T06:39:25;36.97;;;13.23;;
71763;SDS011;59602;52.142;5.408;2022-12-17T06:42:10;31.42;;;12.90;;
71763;SDS011;59602;52.142;5.408;2022-12-17T06:44:55;39.13;;;13.57;;
71763;SDS011;59602;52.142;5.408;2022-12-17T06:47:42;37.63;;;13.00;;
71763;SDS011;59602;52.142;5.408;2022-12-17T06:50:27;43.40;;;12.90;;
71763;SDS011;59602;52.142;5.408;2022-12-17T06:53:12;37.73;;;13.53;;
71763;SDS011;59602;52.142;5.408;2022-12-17T06:55:58;35.20;;;12.85;;
71763;SDS011;59602;52.142;5.408;2022-12-17T06:58:43;37.13;;;13.10;;
71763;SDS011;59602;52.142;5.408;2022-12-17T07:01:29;38.90;;;13.55;;
71763;SDS011;59602;52.142;5.408;2022-12-17T07:04:18;40.47;;;14.00;;
71763;SDS011;59602;52.142;5.408;2022-12-17T07:07:03;44.17;;;16.77;;
71763;SDS011;59602;52.142;5.408;2022-12-17T07:09:48;35.70;;;12.73;;
71763;SDS011;59602;52.142;5.408;2022-12-17T07:12:39;35.03;;;13.00;;
71763;SDS011;59602;52.142;5.408;2022-12-17T07:15:24;38.60;;;12.32;;
71763;SDS011;59602;52.142;5.408;2022-12-17T07:18:10;35.45;;;12.48;;
71763;SDS011;59602;52.142;5.408;2022-12-17T07:20:58;36.43;;;12.83;;
71763;SDS011;59602;52.142;5.408;2022-12-17T07:23:45;36.55;;;13.15;;
71763;SDS011;59602;52.142;5.408;2022-12-17T07:26:30;32.90;;;11.98;;
71763;SDS011;59602;52.142;5.408;2022-12-17T07:29:15;32.28;;;11.35;;
71763;SDS011;59602;52.142;5.408;2022-12-17T07:32:06;36.08;;;12.25;;
71763;SDS011;59602;52.142;5.408;2022-12-17T07:34:51;31.87;;;12.10;;
71763;SDS011;59602;52.142;5.408;2022-12-17T07:37:36;39.22;;;14.13;;
71763;SDS011;59602;52.142;5.408;2022-12-17T07:40:21;32.10;;;11.98;;
71763;SDS011;59602;52.142;5.408;2022-12-17T07:43:08;35.55;;;13.27;;
71763;SDS011;59602;52.142;5.408;2022-12-17T07:45:55;35.45;;;11.93;;
71763;SDS011;59602;52.142;5.408;2022-12-17T07:48:43;33.17;;;12.37;;
71763;SDS011;59602;52.142;5.408;2022-12-17T07:51:33;38.53;;;14.20;;
71763;SDS011;59602;52.142;5.408;2022-12-17T07:54:18;33.35;;;12.07;;
71763;SDS011;59602;52.142;5.408;2022-12-17T07:57:03;34.20;;;13.23;;
71763;SDS011;59602;52.142;5.408;2022-12-17T07:59:51;41.45;;;13.38;;
71763;SDS011;59602;52.142;5.408;2022-12-17T08:02:39;36.07;;;12.07;;
71763;SDS011;59602;52.142;5.408;2022-12-17T08:05:24;36.55;;;14.25;;
71763;SDS011;59602;52.142;5.408;2022-12-17T08:08:10;35.30;;;13.65;;
71763;SDS011;59602;52.142;5.408;2022-12-17T08:10:56;35.13;;;13.20;;
71763;SDS011;59602;52.142;5.408;2022-12-17T08:13:42;40.08;;;14.40;;
71763;SDS011;59602;52.142;5.408;2022-12-17T08:16:27;46.47;;;15.33;;
71763;SDS011;59602;52.142;5.408;2022-12-17T08:19:12;44.53;;;14.65;;
71763;SDS011;59602;52.142;5.408;2022-12-17T08:21:58;40.85;;;14.70;;
71763;SDS011;59602;52.142;5.408;2022-12-17T08:24:44;41.08;;;14.05;;
71763;SDS011;59602;52.142;5.408;2022-12-17T08:27:29;44.83;;;14.20;;
71763;SDS011;59602;52.142;5.408;2022-12-17T08:30:14;40.03;;;14.17;;
71763;SDS011;59602;52.142;5.408;2022-12-17T08:33:02;43.88;;;15.43;;
71763;SDS011;59602;52.142;5.408;2022-12-17T08:35:53;43.30;;;15.18;;
71763;SDS011;59602;52.142;5.408;2022-12-17T08:38:39;43.25;;;14.88;;
71763;SDS011;59602;52.142;5.408;2022-12-17T08:41:25;44.30;;;15.30;;
71763;SDS011;59602;52.142;5.408;2022-12-17T08:44:19;49.40;;;15.87;;
71763;SDS011;59602;52.142;5.408;2022-12-17T08:47:04;44.40;;;15.27;;
71763;SDS011;59602;52.142;5.408;2022-12-17T08:49:49;43.65;;;14.82;;
71763;SDS011;59602;52.142;5.408;2022-12-17T08:52:34;44.17;;;15.68;;
71763;SDS011;59602;52.142;5.408;2022-12-17T08:55:19;45.53;;;14.95;;
71763;SDS011;59602;52.142;5.408;2022-12-17T08:58:15;47.57;;;14.90;;
71763;SDS011;59602;52.142;5.408;2022-12-17T09:01:00;42.55;;;14.68;;
71763;SDS011;59602;52.142;5.408;2022-12-17T09:03:46;95.45;;;22.48;;
71763;SDS011;59602;52.142;5.408;2022-12-17T09:06:31;117.18;;;30.67;;
71763;SDS011;59602;52.142;5.408;2022-12-17T09:09:16;185.05;;;27.15;;
71763;SDS011;59602;52.142;5.408;2022-12-17T09:12:01;163.67;;;37.37;;
71763;SDS011;59602;52.142;5.408;2022-12-17T09:14:46;68.63;;;17.65;;
71763;SDS011;59602;52.142;5.408;2022-12-17T09:17:32;66.55;;;16.83;;
71763;SDS011;59602;52.142;5.408;2022-12-17T09:20:17;52.80;;;16.42;;
71763;SDS011;59602;52.142;5.408;2022-12-17T09:23:02;60.25;;;16.27;;
71763;SDS011;59602;52.142;5.408;2022-12-17T09:25:51;55.53;;;15.93;;
71763;SDS011;59602;52.142;5.408;2022-12-17T09:28:37;48.33;;;14.30;;
71763;SDS011;59602;52.142;5.408;2022-12-17T09:31:22;41.95;;;15.68;;
71763;SDS011;59602;52.142;5.408;2022-12-17T09:34:08;42.28;;;15.82;;
71763;SDS011;59602;52.142;5.408;2022-12-17T09:36:53;48.72;;;16.85;;
71763;SDS011;59602;52.142;5.408;2022-12-17T09:39:38;40.87;;;14.57;;
71763;SDS011;59602;52.142;5.408;2022-12-17T09:42:25;46.95;;;14.65;;
71763;SDS011;59602;52.142;5.408;2022-12-17T09:45:54;53.38;;;19.13;;
71763;SDS011;59602;52.142;5.408;2022-12-17T09:48:59;38.75;;;14.30;;
71763;SDS011;59602;52.142;5.408;2022-12-17T09:51:47;43.40;;;13.23;;
71763;SDS011;59602;52.142;5.408;2022-12-17T09:54:40;43.37;;;15.27;;
71763;SDS011;59602;52.142;5.408;2022-12-17T09:57:31;43.97;;;16.23;;
71763;SDS011;59602;52.142;5.408;2022-12-17T10:00:21;40.67;;;15.20;;
71763;SDS011;59602;52.142;5.408;2022-12-17T10:03:09;42.15;;;14.02;;
71763;SDS011;59602;52.142;5.408;2022-12-17T10:09:32;41.13;;;13.30;;
71763;SDS011;59602;52.142;5.408;2022-12-17T10:12:22;40.22;;;14.00;;
71763;SDS011;59602;52.142;5.408;2022-12-17T10:15:09;38.97;;;13.10;;
71763;SDS011;59602;52.142;5.408;2022-12-17T10:18:01;40.65;;;13.07;;
71763;SDS011;59602;52.142;5.408;2022-12-17T10:20:52;40.75;;;13.13;;
71763;SDS011;59602;52.142;5.408;2022-12-17T10:23:42;41.87;;;13.00;;
71763;SDS011;59602;52.142;5.408;2022-12-17T10:26:29;38.03;;;12.30;;
71763;SDS011;59602;52.142;5.408;2022-12-17T10:32:09;36.45;;;12.68;;
71763;SDS011;59602;52.142;5.408;2022-12-17T10:37:55;39.10;;;11.97;;
71763;SDS011;59602;52.142;5.408;2022-12-17T10:40:43;40.28;;;13.32;;
71763;SDS011;59602;52.142;5.408;2022-12-17T10:43:31;35.72;;;12.60;;
71763;SDS011;59602;52.142;5.408;2022-12-17T10:46:22;41.20;;;12.65;;
71763;SDS011;59602;52.142;5.408;2022-12-17T10:49:10;38.72;;;12.02;;
71763;SDS011;59602;52.142;5.408;2022-12-17T10:51:59;40.20;;;13.47;;
71763;SDS011;59602;52.142;5.408;2022-12-17T10:57:50;38.67;;;11.10;;
71763;SDS011;59602;52.142;5.408;2022-12-17T11:00:37;36.25;;;12.00;;
71763;SDS011;59602;52.142;5.408;2022-12-17T11:06:14;35.00;;;11.63;;
71763;SDS011;59602;52.142;5.408;2022-12-17T11:09:17;42.47;;;12.05;;
71763;SDS011;59602;52.142;5.408;2022-12-17T11:21:20;37.80;;;12.17;;
71763;SDS011;59602;52.142;5.408;2022-12-17T11:24:12;56.22;;;18.75;;
71763;SDS011;59602;52.142;5.408;2022-12-17T11:27:03;45.83;;;14.80;;
71763;SDS011;59602;52.142;5.408;2022-12-17T11:29:52;49.10;;;16.80;;
71763;SDS011;59602;52.142;5.408;2022-12-17T11:32:40;38.28;;;11.73;;
71763;SDS011;59602;52.142;5.408;2022-12-17T11:35:35;37.93;;;11.67;;
71763;SDS011;59602;52.142;5.408;2022-12-17T11:38:35;34.97;;;11.82;;
71763;SDS011;59602;52.142;5.408;2022-12-17T11:41:30;41.58;;;13.50;;
71763;SDS011;59602;52.142;5.408;2022-12-17T11:44:38;46.10;;;16.92;;
71763;SDS011;59602;52.142;5.408;2022-12-17T11:47:34;40.13;;;12.38;;
71763;SDS011;59602;52.142;5.408;2022-12-17T11:56:46;43.08;;;13.32;;
71763;SDS011;59602;52.142;5.408;2022-12-17T12:00:30;39.03;;;13.75;;
71763;SDS011;59602;52.142;5.408;2022-12-17T12:03:37;48.15;;;13.75;;
71763;SDS011;59602;52.142;5.408;2022-12-17T12:13:35;41.30;;;12.60;;
71763;SDS011;59602;52.142;5.408;2022-12-17T12:16:36;38.83;;;12.52;;
71763;SDS011;59602;52.142;5.408;2022-12-17T12:19:45;44.33;;;13.25;;
71763;SDS011;59602;52.142;5.408;2022-12-17T12:22:39;37.10;;;12.70;;
71763;SDS011;59602;52.142;5.408;2022-12-17T12:25:58;41.65;;;12.15;;
71763;SDS011;59602;52.142;5.408;2022-12-17T12:37:58;41.30;;;12.30;;
71763;SDS011;59602;52.142;5.408;2022-12-17T12:46:16;42.53;;;11.88;;
71763;SDS011;59602;52.142;5.408;2022-12-17T12:49:33;44.13;;;13.20;;
71763;SDS011;59602;52.142;5.408;2022-12-17T13:02:33;39.72;;;12.38;;
71763;SDS011;59602;52.142;5.408;2022-12-17T13:05:33;47.10;;;14.45;;
71763;SDS011;59602;52.142;5.408;2022-12-17T13:10:34;45.97;;;12.98;;
71763;SDS011;59602;52.142;5.408;2022-12-17T13:13:09;39.47;;;12.27;;
71763;SDS011;59602;52.142;5.408;2022-12-17T13:15:48;39.85;;;12.57;;
71763;SDS011;59602;52.142;5.408;2022-12-17T13:18:30;40.30;;;12.80;;
71763;SDS011;59602;52.142;5.408;2022-12-17T13:56:45;42.63;;;13.10;;
71763;SDS011;59602;52.142;5.408;2022-12-17T14:00:19;41.88;;;12.95;;
71763;SDS011;59602;52.142;5.408;2022-12-17T14:02:53;45.93;;;14.00;;
71763;SDS011;59602;52.142;5.408;2022-12-17T14:05:34;44.67;;;13.90;;
71763;SDS011;59602;52.142;5.408;2022-12-17T14:08:05;46.20;;;13.95;;
71763;SDS011;59602;52.142;5.408;2022-12-17T14:10:51;39.25;;;13.05;;
71763;SDS011;59602;52.142;5.408;2022-12-17T14:13:54;47.58;;;14.55;;
71763;SDS011;59602;52.142;5.408;2022-12-17T14:16:39;40.30;;;12.53;;
71763;SDS011;59602;52.142;5.408;2022-12-17T14:19:17;48.40;;;14.90;;
71763;SDS011;59602;52.142;5.408;2022-12-17T14:22:44;43.90;;;13.73;;
71763;SDS011;59602;52.142;5.408;2022-12-17T14:25:52;42.10;;;13.30;;
71763;SDS011;59602;52.142;5.408;2022-12-17T14:32:50;43.23;;;14.10;;
71763;SDS011;59602;52.142;5.408;2022-12-17T14:35:43;40.55;;;13.18;;
71763;SDS011;59602;52.142;5.408;2022-12-17T14:41:42;44.25;;;13.55;;
71763;SDS011;59602;52.142;5.408;2022-12-17T14:45:21;44.30;;;13.85;;
71763;SDS011;59602;52.142;5.408;2022-12-17T14:48:42;45.17;;;13.87;;
71763;SDS011;59602;52.142;5.408;2022-12-17T14:51:51;40.50;;;13.30;;
71763;SDS011;59602;52.142;5.408;2022-12-17T14:57:38;49.03;;;13.75;;
71763;SDS011;59602;52.142;5.408;2022-12-17T15:00:23;39.97;;;12.77;;
71763;SDS011;59602;52.142;5.408;2022-12-17T15:02:53;48.47;;;14.17;;
71763;SDS011;59602;52.142;5.408;2022-12-17T15:05:38;51.42;;;14.20;;
71763;SDS011;59602;52.142;5.408;2022-12-17T15:08:25;42.35;;;13.18;;
71763;SDS011;59602;52.142;5.408;2022-12-17T15:11:21;42.17;;;12.13;;
71763;SDS011;59602;52.142;5.408;2022-12-17T15:13:52;46.90;;;13.93;;
71763;SDS011;59602;52.142;5.408;2022-12-17T15:16:35;43.77;;;13.47;;
71763;SDS011;59602;52.142;5.408;2022-12-17T15:19:06;47.88;;;14.10;;
71763;SDS011;59602;52.142;5.408;2022-12-17T15:21:32;47.00;;;13.55;;
71763;SDS011;59602;52.142;5.408;2022-12-17T15:23:59;49.50;;;13.93;;
71763;SDS011;59602;52.142;5.408;2022-12-17T15:26:29;44.47;;;13.15;;
71763;SDS011;59602;52.142;5.408;2022-12-17T15:28:59;46.83;;;14.37;;
71763;SDS011;59602;52.142;5.408;2022-12-17T15:31:29;44.65;;;14.25;;
71763;SDS011;59602;52.142;5.408;2022-12-17T15:34:01;44.90;;;13.43;;
71763;SDS011;59602;52.142;5.408;2022-12-17T15:36:28;44.05;;;13.63;;
71763;SDS011;59602;52.142;5.408;2022-12-17T15:38:57;50.28;;;14.27;;
71763;SDS011;59602;52.142;5.408;2022-12-17T15:41:24;44.37;;;14.33;;
71763;SDS011;59602;52.142;5.408;2022-12-17T15:44:10;41.03;;;13.05;;
71763;SDS011;59602;52.142;5.408;2022-12-17T15:46:37;38.95;;;12.18;;
71763;SDS011;59602;52.142;5.408;2022-12-17T15:49:04;43.05;;;12.60;;
71763;SDS011;59602;52.142;5.408;2022-12-17T15:51:31;38.83;;;12.88;;
71763;SDS011;59602;52.142;5.408;2022-12-17T15:54:00;46.23;;;13.10;;
71763;SDS011;59602;52.142;5.408;2022-12-17T15:56:27;48.97;;;13.80;;
71763;SDS011;59602;52.142;5.408;2022-12-17T15:58:55;44.85;;;14.20;;
71763;SDS011;59602;52.142;5.408;2022-12-17T16:01:23;46.70;;;13.77;;
71763;SDS011;59602;52.142;5.408;2022-12-17T16:03:50;42.50;;;14.10;;
71763;SDS011;59602;52.142;5.408;2022-12-17T16:06:17;46.87;;;13.27;;
71763;SDS011;59602;52.142;5.408;2022-12-17T16:08:50;46.33;;;14.77;;
71763;SDS011;59602;52.142;5.408;2022-12-17T16:11:22;48.63;;;14.05;;
71763;SDS011;59602;52.142;5.408;2022-12-17T16:13:53;44.10;;;13.70;;
71763;SDS011;59602;52.142;5.408;2022-12-17T16:16:24;50.85;;;15.00;;
71763;SDS011;59602;52.142;5.408;2022-12-17T16:18:59;50.30;;;14.87;;
71763;SDS011;59602;52.142;5.408;2022-12-17T16:21:30;50.50;;;14.52;;
71763;SDS011;59602;52.142;5.408;2022-12-17T16:24:15;52.50;;;14.98;;
71763;SDS011;59602;52.142;5.408;2022-12-17T16:27:03;42.33;;;13.25;;
71763;SDS011;59602;52.142;5.408;2022-12-17T16:29:55;42.90;;;13.93;;
71763;SDS011;59602;52.142;5.408;2022-12-17T16:32:23;47.60;;;13.73;;
71763;SDS011;59602;52.142;5.408;2022-12-17T16:35:04;42.17;;;12.65;;
71763;SDS011;59602;52.142;5.408;2022-12-17T16:37:32;50.63;;;14.05;;
71763;SDS011;59602;52.142;5.408;2022-12-17T16:40:08;44.85;;;13.50;;
71763;SDS011;59602;52.142;5.408;2022-12-17T16:42:38;42.38;;;12.38;;
71763;SDS011;59602;52.142;5.408;2022-12-17T16:45:13;40.00;;;11.83;;
71763;SDS011;59602;52.142;5.408;2022-12-17T16:47:44;40.97;;;12.75;;
71763;SDS011;59602;52.142;5.408;2022-12-17T16:53:30;45.38;;;13.82;;
71763;SDS011;59602;52.142;5.408;2022-12-17T16:56:16;42.42;;;11.77;;
71763;SDS011;59602;52.142;5.408;2022-12-17T16:58:48;40.93;;;12.20;;
71763;SDS011;59602;52.142;5.408;2022-12-17T17:01:56;44.38;;;13.98;;
71763;SDS011;59602;52.142;5.408;2022-12-17T17:04:36;43.80;;;12.83;;
71763;SDS011;59602;52.142;5.408;2022-12-17T17:07:12;42.25;;;12.23;;
71763;SDS011;59602;52.142;5.408;2022-12-17T17:09:58;43.88;;;12.00;;
71763;SDS011;59602;52.142;5.408;2022-12-17T17:12:35;43.50;;;13.02;;
71763;SDS011;59602;52.142;5.408;2022-12-17T17:15:24;42.70;;;12.98;;
71763;SDS011;59602;52.142;5.408;2022-12-17T17:17:56;47.33;;;12.93;;
71763;SDS011;59602;52.142;5.408;2022-12-17T17:20:32;43.05;;;13.52;;
71763;SDS011;59602;52.142;5.408;2022-12-17T17:23:03;41.45;;;13.07;;
71763;SDS011;59602;52.142;5.408;2022-12-17T17:25:52;43.72;;;13.10;;
71763;SDS011;59602;52.142;5.408;2022-12-17T17:28:23;45.92;;;13.95;;
71763;SDS011;59602;52.142;5.408;2022-12-17T17:30:58;47.77;;;13.13;;
71763;SDS011;59602;52.142;5.408;2022-12-17T17:33:32;44.22;;;12.77;;
71763;SDS011;59602;52.142;5.408;2022-12-17T17:36:03;44.92;;;14.90;;
71763;SDS011;59602;52.142;5.408;2022-12-17T17:38:48;44.60;;;13.32;;
71763;SDS011;59602;52.142;5.408;2022-12-17T17:41:26;43.97;;;14.18;;
71763;SDS011;59602;52.142;5.408;2022-12-17T17:44:05;41.63;;;12.03;;
71763;SDS011;59602;52.142;5.408;2022-12-17T17:46:38;41.13;;;12.23;;
71763;SDS011;59602;52.142;5.408;2022-12-17T17:49:07;36.70;;;11.63;;
71763;SDS011;59602;52.142;5.408;2022-12-17T17:51:39;45.85;;;11.88;;
71763;SDS011;59602;52.142;5.408;2022-12-17T17:54:27;39.40;;;12.77;;
71763;SDS011;59602;52.142;5.408;2022-12-17T17:56:56;40.27;;;11.80;;
71763;SDS011;59602;52.142;5.408;2022-12-17T17:59:24;39.35;;;11.27;;
71763;SDS011;59602;52.142;5.408;2022-12-17T18:02:00;40.35;;;11.68;;
71763;SDS011;59602;52.142;5.408;2022-12-17T18:04:33;44.47;;;12.20;;
71763;SDS011;59602;52.142;5.408;2022-12-17T18:07:05;41.13;;;12.02;;
71763;SDS011;59602;52.142;5.408;2022-12-17T18:09:52;50.10;;;12.53;;
71763;SDS011;59602;52.142;5.408;2022-12-17T18:12:21;40.60;;;12.30;;